Time;durP1;ratioP1;P1;durP2;ratioP2;P2;SDS_P1;SDS_P2;PMS_P1;PMS_P2;Temp;Humidity;BMP_temperature;BMP_pressure;BME280_temperature;BME280_humidity;BME280_pressure;Samples;Min_cycle;Max_cycle;Signal;HPM_P1;HPM_P2
2022/01/04 00:00:54;;;;;;;4.07;1.48;;;;;;;8.48;70.67;98700.34;10435412;28;20774;-82
2022/01/04 00:05:56;;;;;;;3.85;1.30;;;;;;;8.50;70.24;98680.22;10435620;28;20123;-81
2022/01/04 00:11:07;;;;;;;3.30;1.33;;;;;;;8.49;70.02;98668.97;10434529;28;20124;-82
2022/01/04 00:16:10;;;;;;;4.63;1.30;;;;;;;8.55;70.16;98652.06;10437616;28;20092;-82
2022/01/04 00:21:13;;;;;;;5.38;1.75;;;;;;;8.59;70.04;98630.88;10436390;28;20107;-82
2022/01/04 00:26:14;;;;;;;3.63;1.40;;;;;;;8.65;69.94;98616.56;10437385;28;20084;-82
2022/01/04 00:31:16;;;;;;;4.13;1.50;;;;;;;8.75;69.86;98591.53;10432414;28;20092;-82
2022/01/04 00:36:18;;;;;;;3.08;1.20;;;;;;;8.86;69.54;98586.34;10440912;28;20172;-82
2022/01/04 00:41:20;;;;;;;4.78;1.23;;;;;;;8.82;69.32;98577.91;10437002;28;21209;-82
2022/01/04 00:46:22;;;;;;;5.93;1.33;;;;;;;8.69;69.50;98578.91;10435637;28;20049;-82
2022/01/04 00:51:24;;;;;;;5.65;1.65;;;;;;;8.63;69.79;98568.94;10435788;28;20144;-82
2022/01/04 00:56:25;;;;;;;3.33;1.55;;;;;;;8.68;69.58;98556.41;10436655;28;20061;-82
2022/01/04 01:01:27;;;;;;;3.40;1.70;;;;;;;8.72;69.47;98548.25;10440879;28;20755;-82
2022/01/04 01:06:30;;;;;;;5.22;1.60;;;;;;;8.69;69.55;98543.25;10440610;28;20218;-83
2022/01/04 01:11:31;;;;;;;6.55;1.70;;;;;;;8.81;69.16;98536.31;10442223;28;20128;-83
2022/01/04 01:16:33;;;;;;;6.00;2.13;;;;;;;8.73;69.26;98523.84;10440855;28;20087;-82
2022/01/04 01:21:35;;;;;;;96.45;5.57;;;;;;;8.59;69.67;98523.19;10439281;28;20073;-83
2022/01/04 01:26:37;;;;;;;8.38;3.70;;;;;;;8.61;69.67;98516.94;10439987;28;20152;-82
2022/01/04 01:31:38;;;;;;;5.28;2.50;;;;;;;8.61;69.71;98498.69;10441580;28;21029;-82
2022/01/04 01:36:40;;;;;;;25.20;4.03;;;;;;;8.70;69.52;98485.00;10441062;28;20053;-83
2022/01/04 01:41:42;;;;;;;14.38;4.93;;;;;;;8.66;69.63;98480.94;10440448;28;20146;-82
2022/01/04 01:46:44;;;;;;;406.50;10.80;;;;;;;8.70;69.40;98466.75;10440110;28;20155;-82
2022/01/04 01:51:46;;;;;;;447.13;12.90;;;;;;;8.71;69.48;98450.16;10437657;28;20086;-83
2022/01/04 01:56:47;;;;;;;192.18;8.43;;;;;;;8.75;69.48;98440.34;10440573;28;20494;-82
2022/01/04 02:01:50;;;;;;;202.48;8.48;;;;;;;8.77;69.48;98428.81;10438477;28;20476;-82
2022/01/04 02:06:52;;;;;;;4.53;2.55;;;;;;;8.55;69.68;98422.75;10436534;28;20057;-82
2022/01/04 02:11:54;;;;;;;6.70;3.10;;;;;;;8.49;69.81;98420.59;10438279;28;20169;-83
2022/01/04 02:16:56;;;;;;;5.65;2.50;;;;;;;8.49;69.78;98411.03;10440394;28;20061;-82
2022/01/04 02:21:58;;;;;;;381.33;11.13;;;;;;;8.39;69.91;98394.41;10436141;28;20426;-83
2022/01/04 02:27:00;;;;;;;496.83;12.95;;;;;;;8.27;70.47;98395.34;10439828;28;20087;-83
2022/01/04 02:32:02;;;;;;;482.60;12.90;;;;;;;8.44;70.25;98381.06;10438689;28;20064;-82
2022/01/04 02:37:04;;;;;;;328.17;8.93;;;;;;;8.50;70.06;98376.22;10437537;28;20082;-82
2022/01/04 02:42:06;;;;;;;14.57;5.15;;;;;;;8.60;69.84;98365.91;10439144;28;20160;-83
2022/01/04 02:47:08;;;;;;;32.67;6.78;;;;;;;8.67;69.30;98364.47;10436618;28;20088;-83
2022/01/04 02:52:10;;;;;;;13.50;4.95;;;;;;;8.63;69.47;98356.09;10432857;28;20061;-83
2022/01/04 02:57:11;;;;;;;8.82;4.28;;;;;;;8.51;69.77;98350.97;10437474;28;20084;-82
2022/01/04 03:02:13;;;;;;;9.85;4.32;;;;;;;8.52;69.71;98331.81;10438477;28;20095;-82
2022/01/04 03:07:16;;;;;;;7.10;4.40;;;;;;;8.60;69.66;98332.03;10440171;28;20379;-82
2022/01/04 03:12:17;;;;;;;23.13;5.50;;;;;;;8.63;69.66;98322.22;10441837;28;20092;-82
2022/01/04 03:17:19;;;;;;;256.25;8.43;;;;;;;8.51;69.32;98311.88;10441954;28;20183;-83
2022/01/04 03:22:21;;;;;;;189.25;7.47;;;;;;;8.50;69.75;98302.44;10441190;28;20088;-83
2022/01/04 03:27:23;;;;;;;135.70;8.85;;;;;;;8.49;69.51;98291.19;10442765;28;20106;-83
2022/01/04 03:32:24;;;;;;;71.97;5.18;;;;;;;8.38;70.11;98300.78;10442606;28;20073;-83
2022/01/04 03:37:26;;;;;;;421.25;10.38;;;;;;;8.35;69.88;98290.56;10439912;28;20092;-82
2022/01/04 03:42:28;;;;;;;337.17;9.57;;;;;;;8.38;69.96;98275.56;10443635;28;20077;-83
2022/01/04 03:47:30;;;;;;;43.95;4.35;;;;;;;8.46;69.77;98264.53;10442910;28;20092;-82
2022/01/04 03:52:31;;;;;;;5.90;2.65;;;;;;;8.52;69.67;98248.44;10457311;28;20087;-83
2022/01/04 03:57:35;;;;;;;7.35;3.92;;;;;;;8.55;69.53;98235.16;10430094;28;20144;-82
2022/01/04 04:02:36;;;;;;;6.25;3.42;;;;;;;8.47;69.50;98227.94;10436541;28;20072;-84
2022/01/04 04:07:38;;;;;;;36.17;4.00;;;;;;;8.39;69.69;98214.69;10436540;28;20971;-84
2022/01/04 04:12:40;;;;;;;33.58;5.32;;;;;;;8.27;70.06;98200.00;10437072;28;20130;-84
2022/01/04 04:17:45;;;;;;;30.10;5.47;;;;;;;8.35;69.93;98195.03;10439444;28;20049;-81
2022/01/04 04:22:47;;;;;;;8.45;4.30;;;;;;;8.45;69.62;98189.94;10436803;28;20091;-82
2022/01/04 04:27:49;;;;;;;5.70;2.75;;;;;;;8.45;69.25;98190.75;10443259;28;20057;-81
2022/01/04 04:32:50;;;;;;;42.20;4.43;;;;;;;8.42;69.71;98200.59;10443758;28;20049;-81
2022/01/04 04:37:52;;;;;;;38.95;4.80;;;;;;;8.37;69.68;98176.66;10443744;28;20088;-82
2022/01/04 04:42:54;;;;;;;8.68;3.97;;;;;;;8.32;69.54;98178.81;10442036;28;20049;-81
2022/01/04 04:47:56;;;;;;;8.80;3.95;;;;;;;8.30;69.79;98178.13;10443117;28;20463;-81
2022/01/04 04:52:58;;;;;;;5.82;3.35;;;;;;;8.35;69.79;98162.94;10443211;28;20065;-81
2022/01/04 04:58:00;;;;;;;26.48;4.85;;;;;;;8.40;69.52;98151.25;10441501;28;20560;-82
2022/01/04 05:03:01;;;;;;;217.50;6.65;;;;;;;8.35;69.51;98148.16;10443139;28;20085;-82
2022/01/04 05:08:04;;;;;;;150.35;6.57;;;;;;;8.39;69.49;98138.31;10442975;28;20052;-82
2022/01/04 05:13:05;;;;;;;69.80;5.68;;;;;;;8.37;69.43;98125.41;10440976;28;20061;-82
2022/01/04 05:18:10;;;;;;;6.45;3.72;;;;;;;8.37;69.52;98129.78;10440388;28;20150;-84
2022/01/04 05:23:12;;;;;;;9.10;4.20;;;;;;;8.40;69.60;98126.97;10450992;28;20060;-84
2022/01/04 05:28:14;;;;;;;9.02;4.80;;;;;;;8.41;69.37;98120.78;10453872;28;20081;-82
2022/01/04 05:33:15;;;;;;;6.45;3.70;;;;;;;8.37;69.45;98119.38;10454556;28;20060;-82
2022/01/04 05:38:17;;;;;;;6.28;3.90;;;;;;;8.39;69.15;98117.47;10445387;28;20083;-82
2022/01/04 05:43:19;;;;;;;26.50;5.15;;;;;;;8.26;69.69;98117.59;10439059;28;20077;-81
2022/01/04 05:48:21;;;;;;;6.15;3.00;;;;;;;8.22;69.65;98099.78;10439904;28;20115;-82
2022/01/04 05:53:23;;;;;;;7.88;2.50;;;;;;;8.24;69.51;98083.06;10442523;28;20477;-84
2022/01/04 05:58:25;;;;;;;417.15;11.25;;;;;;;8.27;69.50;98082.81;10440941;28;20076;-84
2022/01/04 06:03:27;;;;;;;144.23;11.07;;;;;;;8.30;69.49;98086.97;10444903;28;20076;-82
2022/01/04 06:08:33;;;;;;;231.02;14.98;;;;;;;8.19;69.33;98077.41;10441488;28;20087;-82
2022/01/04 06:19:00;;;;;;;51.17;7.80;;;;;;;8.19;69.50;98068.75;10446694;28;20049;-83
2022/01/04 06:24:02;;;;;;;11.25;5.75;;;;;;;8.24;69.64;98062.22;10445068;28;20056;-83
2022/01/04 06:29:04;;;;;;;15.95;7.32;;;;;;;8.18;69.36;98061.91;10439035;28;20049;-78
2022/01/04 06:34:06;;;;;;;13.15;7.10;;;;;;;7.98;69.60;98064.25;10435623;28;20115;-77
2022/01/04 06:39:07;;;;;;;12.95;6.38;;;;;;;7.76;70.19;98066.88;10438688;28;20148;-77
2022/01/04 06:44:09;;;;;;;20.63;5.97;;;;;;;7.75;70.45;98059.22;10437767;28;20084;-77
2022/01/04 06:49:18;;;;;;;14.98;4.50;;;;;;;7.71;70.85;98060.41;10438842;28;20080;-77
2022/01/04 06:54:20;;;;;;;8.95;5.00;;;;;;;7.91;70.38;98044.03;10436811;28;20102;-77
2022/01/04 06:59:22;;;;;;;19.75;8.52;;;;;;;8.00;69.89;98048.50;10436383;28;20502;-77
2022/01/04 07:04:24;;;;;;;200.32;12.80;;;;;;;7.98;70.12;98033.03;10437747;28;20057;-77
2022/01/04 07:09:25;;;;;;;269.67;13.85;;;;;;;7.90;69.97;98034.56;10436921;28;20076;-77
2022/01/04 07:14:27;;;;;;;211.48;15.88;;;;;;;7.80;70.36;98034.47;10437345;28;20102;-77
2022/01/04 07:19:29;;;;;;;100.55;12.15;;;;;;;7.94;70.22;98029.00;10437136;28;20150;-77
2022/01/04 07:24:31;;;;;;;12.02;6.65;;;;;;;7.98;69.92;98020.00;10436109;28;20083;-77
2022/01/04 07:29:33;;;;;;;6.82;4.35;;;;;;;8.09;69.65;98026.13;10435414;28;20128;-77
2022/01/04 07:34:36;;;;;;;8.70;4.47;;;;;;;8.14;69.38;98013.63;10436224;28;20399;-77
2022/01/04 07:39:37;;;;;;;6.40;3.35;;;;;;;8.17;69.30;98011.59;10436749;28;20167;-77
2022/01/04 07:44:39;;;;;;;12.15;7.05;;;;;;;8.15;69.18;98002.25;10436008;28;20072;-76
2022/01/04 07:49:41;;;;;;;22.08;7.70;;;;;;;8.17;69.31;98003.78;10436033;28;20152;-77
2022/01/04 07:54:43;;;;;;;27.02;9.05;;;;;;;8.19;69.18;97995.84;10436402;28;20099;-77
2022/01/04 07:59:45;;;;;;;170.23;11.57;;;;;;;8.22;68.96;97991.19;10436325;28;20156;-77
2022/01/04 08:04:46;;;;;;;243.73;14.80;;;;;;;8.21;68.98;97986.97;10438608;28;20087;-77
2022/01/04 08:09:48;;;;;;;343.05;15.82;;;;;;;8.24;68.95;97983.28;10444211;28;20108;-77
2022/01/04 08:14:50;;;;;;;398.27;13.43;;;;;;;8.20;69.19;97980.09;10443441;28;20092;-77
2022/01/04 08:19:52;;;;;;;30.92;7.38;;;;;;;8.16;69.30;97980.47;10444769;28;20569;-77
2022/01/04 08:24:53;;;;;;;14.23;7.72;;;;;;;8.11;69.20;97973.03;10444849;28;20144;-77
2022/01/04 08:29:56;;;;;;;9.52;5.00;;;;;;;8.10;69.23;97976.56;10443111;28;20091;-77
2022/01/04 08:34:58;;;;;;;9.90;5.78;;;;;;;8.04;69.20;97972.66;10443359;28;20145;-77
2022/01/04 08:40:00;;;;;;;8.48;4.85;;;;;;;8.06;69.29;97976.94;10443303;28;20232;-77
2022/01/04 08:45:06;;;;;;;7.78;5.05;;;;;;;8.14;69.31;97971.97;10442311;28;20060;-77
2022/01/04 08:50:11;;;;;;;9.73;5.13;;;;;;;8.18;69.12;97975.97;10443655;28;20068;-76
2022/01/04 08:55:12;;;;;;;7.70;4.80;;;;;;;8.12;69.23;97973.88;10444982;28;20143;-77
2022/01/04 09:00:16;;;;;;;9.10;3.85;;;;;;;8.14;69.09;97982.38;10438143;28;20599;-78
2022/01/04 09:05:30;;;;;;;6.13;3.30;;;;;;;7.97;68.89;97991.50;10443660;28;20061;-77
2022/01/04 09:10:37;;;;;;;4.03;2.72;;;;;;;8.00;69.18;97992.09;10441129;28;20466;-77
2022/01/04 09:21:02;;;;;;;2.67;1.50;;;;;;;8.00;68.52;97981.66;10442328;28;20045;-77
2022/01/04 09:26:05;;;;;;;2.13;1.30;;;;;;;7.97;68.14;97981.09;10440705;28;20911;-77
2022/01/04 09:31:13;;;;;;;2.47;1.27;;;;;;;8.04;67.81;97990.03;10440932;28;20122;-80
2022/01/04 09:36:31;;;;;;;4.95;1.30;;;;;;;7.97;67.83;97994.94;10440246;28;20080;-78
2022/01/04 09:41:35;;;;;;;2.95;1.20;;;;;;;8.04;68.09;97998.69;10440179;28;20052;-79
2022/01/04 09:46:39;;;;;;;2.78;1.30;;;;;;;8.10;67.66;97996.56;10439761;28;20053;-80
2022/01/04 09:51:42;;;;;;;2.83;1.30;;;;;;;8.08;67.47;97993.25;10441424;28;20057;-80
2022/01/04 09:56:43;;;;;;;5.78;3.72;;;;;;;8.10;67.59;98005.22;10440323;28;20118;-83
2022/01/04 10:01:53;;;;;;;4.32;3.00;;;;;;;8.18;67.70;97994.19;10439624;28;20053;-82
2022/01/04 10:07:00;;;;;;;3.87;2.10;;;;;;;8.11;67.82;98006.03;10441452;28;20045;-82
2022/01/04 10:12:08;;;;;;;5.13;2.05;;;;;;;8.11;68.21;98016.47;10437540;28;20057;-80
2022/01/04 10:17:22;;;;;;;5.30;2.40;;;;;;;8.11;68.25;98009.47;10440274;28;20084;-83
2022/01/04 10:22:31;;;;;;;3.90;2.67;;;;;;;8.18;67.91;98007.22;10446447;28;20088;-82
2022/01/04 10:27:52;;;;;;;3.03;1.80;;;;;;;8.04;67.79;98011.72;10452463;28;20048;-82
2022/01/04 10:33:10;;;;;;;5.72;2.33;;;;;;;7.99;68.08;98003.47;10437613;28;20920;-82
2022/01/04 10:38:21;;;;;;;6.53;2.00;;;;;;;7.92;68.27;98007.47;10431542;28;20498;-81
2022/01/04 10:43:40;;;;;;;4.43;2.10;;;;;;;7.95;68.05;98006.41;10438386;28;20085;-82
2022/01/04 10:48:52;;;;;;;3.60;1.50;;;;;;;7.94;67.70;97992.56;10446737;28;20083;-82
2022/01/04 10:53:57;;;;;;;3.00;1.70;;;;;;;7.71;68.25;98009.16;10435251;28;20060;-82
2022/01/04 10:59:09;;;;;;;2.63;1.58;;;;;;;7.66;68.47;98006.09;10437299;28;20041;-82
2022/01/04 11:04:14;;;;;;;2.55;1.40;;;;;;;7.57;68.81;97998.22;10435305;28;20842;-82
2022/01/04 11:09:19;;;;;;;2.28;1.50;;;;;;;7.60;68.63;97990.16;10436140;28;20475;-82
2022/01/04 11:14:24;;;;;;;2.40;1.38;;;;;;;7.51;68.76;97989.09;10436105;28;20080;-82
2022/01/04 11:19:34;;;;;;;2.13;1.48;;;;;;;7.61;68.42;97997.81;10451251;28;20513;-82
2022/01/04 11:24:37;;;;;;;2.40;1.30;;;;;;;7.71;68.15;98005.75;10448252;28;20063;-83
2022/01/04 11:29:43;;;;;;;2.25;1.40;;;;;;;7.60;68.14;98003.16;10455182;28;20103;-82
2022/01/04 11:35:08;;;;;;;1.55;1.20;;;;;;;7.51;68.00;98002.09;10443646;28;20118;-82
2022/01/04 11:40:34;;;;;;;1.85;1.17;;;;;;;7.52;67.49;98006.34;10435852;28;20122;-83
2022/01/04 11:45:46;;;;;;;2.40;1.30;;;;;;;7.49;68.22;98014.38;10437763;28;20140;-80
2022/01/04 11:50:48;;;;;;;4.82;1.30;;;;;;;7.44;68.25;98016.53;10441667;28;20060;-83
2022/01/04 11:56:05;;;;;;;1.83;1.25;;;;;;;7.42;68.08;98012.38;10445838;28;20087;-83
2022/01/04 12:01:07;;;;;;;2.97;1.48;;;;;;;7.42;68.35;98005.41;10442419;28;20119;-85
2022/01/04 12:06:12;;;;;;;2.53;1.20;;;;;;;7.39;68.18;98004.81;10437880;28;20060;-84
2022/01/04 12:11:26;;;;;;;3.03;1.40;;;;;;;7.36;68.31;97997.25;10444354;28;20057;-85
2022/01/04 12:17:03;;;;;;;2.40;1.50;;;;;;;7.43;68.00;97996.66;10446011;28;20415;-83
2022/01/04 12:22:27;;;;;;;2.97;1.80;;;;;;;7.49;68.39;97985.78;10436763;28;20065;-85
2022/01/04 12:27:36;;;;;;;3.25;1.90;;;;;;;7.54;68.39;97994.06;10446586;28;20053;-84
2022/01/04 12:32:47;;;;;;;2.83;1.70;;;;;;;7.49;68.39;98001.38;10445822;28;20049;-84
2022/01/04 12:38:06;;;;;;;2.33;1.60;;;;;;;7.44;68.51;98003.53;10442682;28;20119;-84
2022/01/04 12:43:13;;;;;;;3.60;1.83;;;;;;;7.44;68.35;98016.53;10446821;28;20084;-84
2022/01/04 12:48:53;;;;;;;2.90;1.80;;;;;;;7.30;68.55;98011.56;10439769;28;20107;-85
2022/01/04 12:54:35;;;;;;;3.85;2.05;;;;;;;7.22;68.86;98008.72;10448047;28;20075;-83
2022/01/04 12:59:48;;;;;;;4.25;1.85;;;;;;;7.33;68.70;98005.28;10386204;28;20083;-83
2022/01/04 13:05:03;;;;;;;2.92;1.85;;;;;;;7.17;68.86;98022.06;10443484;28;20107;-83
2022/01/04 13:10:12;;;;;;;4.15;2.10;;;;;;;7.13;69.01;98027.63;10452448;28;20064;-84
2022/01/04 13:15:20;;;;;;;4.70;2.20;;;;;;;7.23;69.25;98025.13;10455738;28;20060;-84
2022/01/04 13:20:26;;;;;;;5.25;2.03;;;;;;;7.34;69.01;98026.00;10448091;28;20075;-85
2022/01/04 13:25:40;;;;;;;4.80;2.30;;;;;;;7.34;69.11;98018.19;10442773;28;20087;-84
2022/01/04 13:30:47;;;;;;;3.22;2.00;;;;;;;7.27;68.70;98030.00;10447740;28;20080;-83
2022/01/04 13:35:57;;;;;;;3.17;1.95;;;;;;;7.21;68.85;98022.66;10465055;28;20068;-82
2022/01/04 13:41:01;;;;;;;4.18;2.03;;;;;;;7.32;68.85;98009.69;10468791;28;20053;-82
2022/01/04 13:46:09;;;;;;;4.57;2.10;;;;;;;7.45;68.52;98014.78;10478805;28;20152;-83
2022/01/04 13:51:19;;;;;;;;;;;;;;;7.13;68.89;98038.84;10481591;28;20048;-82
2022/01/04 13:56:31;;;;;;;3.50;1.65;;;;;;;7.30;68.26;98060.97;10461409;28;19924;-84
2022/01/04 14:01:46;;;;;;;3.20;1.40;;;;;;;7.14;68.44;98074.28;10445589;28;20080;-83
2022/01/04 14:06:55;;;;;;;2.85;1.50;;;;;;;7.03;68.80;98063.88;10460149;28;20060;-83
2022/01/04 14:12:03;;;;;;;4.32;1.50;;;;;;;7.07;68.64;98056.66;10470767;28;20052;-82
2022/01/04 14:17:09;;;;;;;3.13;1.50;;;;;;;6.99;68.81;98054.66;10467589;28;20144;-82
2022/01/04 14:22:24;;;;;;;3.47;1.83;;;;;;;7.01;68.61;98049.34;10469561;28;20080;-83
2022/01/04 14:27:38;;;;;;;2.70;1.73;;;;;;;6.79;68.98;98057.91;10453913;28;20104;-81
2022/01/04 14:32:43;;;;;;;2.90;1.60;;;;;;;6.81;68.95;98063.81;10461951;28;20053;-81
2022/01/04 14:37:54;;;;;;;4.53;1.83;;;;;;;6.62;69.68;98066.09;10468706;28;20056;-80
2022/01/04 14:42:57;;;;;;;3.83;1.77;;;;;;;6.60;69.57;98074.94;10452673;28;20057;-80
2022/01/04 14:47:59;;;;;;;4.07;1.52;;;;;;;6.59;69.50;98091.47;10459289;28;20056;-81
2022/01/04 14:53:02;;;;;;;3.17;1.30;;;;;;;6.59;69.66;98087.13;10459012;28;20522;-81
2022/01/04 14:58:03;;;;;;;3.15;1.85;;;;;;;6.44;69.87;98088.22;10446892;28;20987;-82
2022/01/04 15:03:05;;;;;;;2.63;1.55;;;;;;;6.47;69.84;98092.38;10437548;28;20151;-80
2022/01/04 15:08:07;;;;;;;2.50;1.38;;;;;;;6.49;69.64;98093.09;10436956;28;20057;-78
2022/01/04 15:13:09;;;;;;;4.10;2.10;;;;;;;6.49;69.77;98093.09;10435733;28;20584;-79
2022/01/04 15:18:11;;;;;;;3.30;1.60;;;;;;;6.45;69.75;98095.06;10439777;28;20076;-80
2022/01/04 15:23:12;;;;;;;3.72;1.50;;;;;;;6.27;70.04;98081.63;10436855;28;20092;-79
2022/01/04 15:28:14;;;;;;;2.95;1.35;;;;;;;6.20;70.15;98077.81;10437247;28;20453;-79
2022/01/04 15:33:16;;;;;;;2.40;1.25;;;;;;;6.16;70.32;98081.56;10437996;28;20162;-79
2022/01/04 15:38:18;;;;;;;3.47;1.33;;;;;;;6.21;70.55;98061.28;10440484;28;20056;-79
2022/01/04 15:43:19;;;;;;;3.55;1.40;;;;;;;6.17;70.41;98064.19;10439893;28;20138;-79
2022/01/04 15:48:22;;;;;;;2.45;1.20;;;;;;;6.20;70.25;98085.59;10434319;28;20092;-79
2022/01/04 15:53:24;;;;;;;2.92;1.65;;;;;;;6.19;70.21;98089.09;10437053;28;20139;-80
2022/01/04 15:58:26;;;;;;;2.60;1.38;;;;;;;5.98;70.70;98101.00;10438430;28;20173;-80
2022/01/04 16:03:28;;;;;;;3.20;1.40;;;;;;;6.13;70.18;98101.69;10438791;28;20052;-80
2022/01/04 16:08:30;;;;;;;2.53;1.48;;;;;;;6.13;70.34;98120.69;10438205;28;20067;-80
2022/01/04 16:13:32;;;;;;;4.03;1.60;;;;;;;6.05;70.64;98127.34;10437578;28;20717;-80
2022/01/04 16:21:32;;;;;;;2.15;1.25;;;;;;;6.03;70.52;98134.41;10436264;28;20579;-80
2022/01/04 16:23:55;;;;;;;1.77;1.17;;;;;;;6.16;70.20;98141.25;10439860;28;20073;-80
2022/01/04 16:29:08;;;;;;;4.32;1.60;;;;;;;6.19;70.14;98148.81;10449360;28;20135;-79
2022/01/04 16:34:10;;;;;;;2.70;1.50;;;;;;;6.19;70.01;98148.81;10447806;28;20053;-80
2022/01/04 16:39:14;;;;;;;3.13;1.50;;;;;;;6.22;69.92;98150.38;10447136;28;20053;-80
2022/01/04 16:44:16;;;;;;;2.63;1.50;;;;;;;6.26;69.91;98144.06;10446431;28;20056;-78
2022/01/04 16:49:19;;;;;;;3.47;1.70;;;;;;;6.25;69.72;98144.97;10453031;28;20115;-78
2022/01/04 16:54:21;;;;;;;3.17;1.70;;;;;;;6.26;69.82;98142.28;10444819;28;20088;-78
2022/01/04 16:59:23;;;;;;;2.90;1.65;;;;;;;6.35;69.51;98149.41;10442746;28;20500;-76
2022/01/04 17:04:28;;;;;;;3.03;1.50;;;;;;;6.33;69.63;98150.44;10442654;28;20099;-79
2022/01/04 17:09:38;;;;;;;3.05;1.70;;;;;;;6.31;69.70;98144.53;10439752;28;20106;-78
2022/01/04 17:20:00;;;;;;;5.47;2.83;;;;;;;6.26;70.00;98141.47;10451858;28;20056;-78
2022/01/04 17:25:08;;;;;;;4.63;1.70;;;;;;;6.22;70.37;98135.63;10455346;28;20753;-79
2022/01/04 17:30:14;;;;;;;4.68;2.00;;;;;;;6.24;70.09;98133.75;10450512;28;20045;-79
2022/01/04 17:35:16;;;;;;;5.82;2.03;;;;;;;6.24;70.21;98136.34;10470291;28;20057;-79
2022/01/04 17:40:18;;;;;;;4.80;2.00;;;;;;;6.25;70.16;98143.22;10459084;28;20158;-79
2022/01/04 17:45:20;;;;;;;3.58;1.80;;;;;;;6.30;70.10;98135.09;10461638;28;20045;-80
2022/01/04 17:50:23;;;;;;;4.05;1.73;;;;;;;6.33;69.87;98143.50;10462352;28;20060;-80
2022/01/04 17:55:27;;;;;;;6.28;2.10;;;;;;;6.34;69.91;98145.19;10458324;28;20091;-79
2022/01/04 18:00:32;;;;;;;3.40;2.10;;;;;;;6.34;69.76;98145.19;10455917;28;20355;-79
2022/01/04 18:05:35;;;;;;;3.90;2.25;;;;;;;6.34;69.78;98142.59;10452047;28;20303;-79
2022/01/04 18:10:38;;;;;;;3.45;2.00;;;;;;;6.43;69.67;98148.88;10452996;28;20048;-79
2022/01/04 18:15:40;;;;;;;4.95;2.20;;;;;;;6.43;69.93;98141.06;10451227;28;20076;-79
2022/01/04 18:20:42;;;;;;;3.30;1.88;;;;;;;6.42;69.74;98144.63;10457069;28;20056;-80
2022/01/04 18:25:44;;;;;;;3.72;2.30;;;;;;;6.44;69.75;98132.34;10460720;28;20053;-79
2022/01/04 18:30:46;;;;;;;3.83;2.33;;;;;;;6.53;69.65;98129.09;10462282;28;20052;-80
2022/01/04 18:35:48;;;;;;;3.90;2.20;;;;;;;6.57;69.54;98121.94;10458596;28;20048;-80
2022/01/04 18:40:56;;;;;;;3.60;2.10;;;;;;;6.62;69.11;98123.25;10458220;28;20060;-79
2022/01/04 18:46:00;;;;;;;3.65;2.20;;;;;;;6.50;69.39;98112.91;10462694;28;20056;-80
2022/01/04 18:51:02;;;;;;;4.72;2.22;;;;;;;6.51;69.30;98128.38;10442226;28;20978;-80
2022/01/04 18:56:05;;;;;;;3.20;2.17;;;;;;;6.52;69.19;98148.22;10439153;28;20095;-81
2022/01/04 19:01:07;;;;;;;4.03;2.05;;;;;;;6.45;68.85;98128.00;10437046;28;20104;-81
2022/01/04 19:06:09;;;;;;;38.05;22.50;;;;;;;6.69;68.57;98123.63;10437529;28;20476;-81
2022/01/04 19:11:11;;;;;;;3.72;2.25;;;;;;;6.74;68.32;98118.91;10449079;28;20099;-81
2022/01/04 19:16:13;;;;;;;4.25;2.25;;;;;;;6.76;67.91;98122.22;10459406;28;20486;-83
2022/01/04 19:21:15;;;;;;;2.80;1.90;;;;;;;6.57;68.31;98129.72;10454810;28;20053;-87
2022/01/04 19:26:17;;;;;;;4.32;1.90;;;;;;;6.53;68.34;98144.66;10462552;28;20060;-84
2022/01/04 19:31:24;;;;;;;5.25;1.83;;;;;;;6.49;68.16;98143.22;10461559;28;20083;-81
2022/01/04 19:36:26;;;;;;;3.60;1.70;;;;;;;6.56;68.15;98131.47;10453343;28;20084;-83
2022/01/04 19:41:35;;;;;;;2.78;1.70;;;;;;;6.63;67.77;98124.91;10440721;28;20060;-83
2022/01/04 19:46:38;;;;;;;2.35;1.50;;;;;;;6.60;67.86;98117.34;10437510;28;20064;-83
2022/01/04 19:51:41;;;;;;;3.75;2.20;;;;;;;6.67;67.61;98115.13;10441498;28;20049;-83
2022/01/04 19:56:43;;;;;;;3.35;1.63;;;;;;;6.74;67.39;98113.72;10442472;28;20096;-83
2022/01/04 20:01:45;;;;;;;7.05;2.80;;;;;;;6.82;67.20;98107.03;10444242;28;20077;-84
2022/01/04 20:06:46;;;;;;;7.15;3.80;;;;;;;6.79;67.36;98119.44;10446106;28;20057;-84
2022/01/04 20:11:48;;;;;;;15.60;7.82;;;;;;;6.67;67.72;98102.97;10468909;28;20045;-83
2022/01/04 20:16:50;;;;;;;15.50;9.27;;;;;;;6.64;67.54;98105.78;10453407;28;20142;-84
2022/01/04 20:27:52;;;;;;;14.45;7.70;;;;;;;6.70;67.61;98120.91;10454279;28;20053;-84
2022/01/04 20:32:54;;;;;;;12.85;6.65;;;;;;;6.71;67.50;98120.00;10453533;28;20053;-84
2022/01/04 20:38:03;;;;;;;8.35;4.07;;;;;;;6.69;67.10;98110.66;10459894;28;20548;-84
2022/01/04 20:43:05;;;;;;;10.75;5.05;;;;;;;6.67;67.52;98125.53;10455928;28;20052;-84
2022/01/04 20:48:07;;;;;;;10.98;5.10;;;;;;;6.76;67.08;98124.84;10462769;28;20087;-84
2022/01/04 20:53:09;;;;;;;4.18;1.67;;;;;;;6.80;67.02;98108.06;10436834;28;20529;-84
2022/01/04 20:58:10;;;;;;;13.15;5.47;;;;;;;6.89;67.19;98099.63;10452736;28;20056;-84
2022/01/04 21:03:13;;;;;;;19.10;8.35;;;;;;;7.07;66.66;98087.84;10451036;28;20115;-84
2022/01/04 21:08:17;;;;;;;11.07;4.20;;;;;;;7.03;66.61;98096.81;10463391;28;20057;-84
2022/01/04 21:13:19;;;;;;;11.20;4.90;;;;;;;6.92;66.72;98104.56;10467676;28;20414;-84
2022/01/04 21:18:21;;;;;;;6.07;3.00;;;;;;;6.95;66.89;98102.59;10480072;28;20057;-84
2022/01/04 21:23:24;;;;;;;7.05;2.97;;;;;;;6.95;66.83;98093.97;10476160;28;20053;-84
2022/01/04 21:28:26;;;;;;;12.23;5.00;;;;;;;6.99;66.70;98092.81;10475311;28;20045;-83
2022/01/04 21:33:27;;;;;;;11.55;4.90;;;;;;;7.04;66.73;98098.50;10453172;28;20444;-83
2022/01/04 21:38:29;;;;;;;3.90;2.40;;;;;;;7.00;66.67;98097.88;10442323;28;20513;-83
2022/01/04 21:43:31;;;;;;;2.10;1.20;;;;;;;6.91;66.39;98101.19;10442061;28;20150;-83
2022/01/04 21:48:38;;;;;;;3.17;1.30;;;;;;;7.01;66.57;98091.75;10440652;28;20155;-83
2022/01/04 21:53:40;;;;;;;4.80;2.60;;;;;;;7.10;66.44;98090.25;10442115;28;20056;-82
2022/01/04 21:58:42;;;;;;;1.67;1.10;;;;;;;7.09;66.25;98099.81;10447410;28;20045;-82
2022/01/04 22:03:46;;;;;;;2.28;1.30;;;;;;;7.03;66.28;98102.88;10442105;28;20098;-83
2022/01/04 22:08:48;;;;;;;2.70;1.60;;;;;;;7.00;66.56;98116.06;10440506;28;20142;-83
2022/01/04 22:13:49;;;;;;;2.97;1.55;;;;;;;6.99;66.23;98100.59;10441700;28;20789;-82
2022/01/04 22:18:51;;;;;;;2.65;1.38;;;;;;;6.88;66.40;98110.94;10443014;28;20053;-82
2022/01/04 22:24:12;;;;;;;3.77;2.73;;;;;;;6.84;66.53;98105.16;10439547;28;20060;-82
2022/01/04 22:29:14;;;;;;;4.82;2.65;;;;;;;6.89;66.62;98116.06;10440923;28;20494;-82
2022/01/04 22:34:19;;;;;;;2.47;1.65;;;;;;;6.86;66.61;98118.84;10440241;28;20067;-82
2022/01/04 22:39:21;;;;;;;2.88;1.30;;;;;;;6.96;66.36;98106.00;10439878;28;20149;-83
2022/01/04 22:44:23;;;;;;;4.20;1.58;;;;;;;6.92;66.46;98115.81;10439700;28;20061;-83
2022/01/04 22:49:25;;;;;;;2.33;1.40;;;;;;;6.81;66.51;98115.78;10439162;28;20092;-82
2022/01/04 22:54:28;;;;;;;2.80;1.33;;;;;;;6.88;66.43;98116.97;10439606;28;20138;-82
2022/01/04 22:59:29;;;;;;;1.85;1.10;;;;;;;6.83;66.53;98106.09;10439852;28;20155;-83
2022/01/04 23:04:32;;;;;;;2.50;1.40;;;;;;;6.88;66.61;98092.75;10449604;28;20060;-83
2022/01/04 23:09:34;;;;;;;2.97;1.20;;;;;;;6.89;66.60;98084.03;10441759;28;20088;-82
2022/01/04 23:14:36;;;;;;;2.85;1.30;;;;;;;6.77;67.06;98071.94;10440936;28;20091;-83
2022/01/04 23:19:38;;;;;;;3.83;1.30;;;;;;;6.77;67.19;98066.75;10438890;28;20106;-83
2022/01/04 23:24:40;;;;;;;2.05;1.17;;;;;;;6.71;66.80;98088.81;10439542;28;20118;-83
2022/01/04 23:29:42;;;;;;;2.50;1.15;;;;;;;6.53;67.11;98084.13;10438071;28;20140;-82
2022/01/04 23:34:43;;;;;;;3.03;1.20;;;;;;;6.50;67.13;98086.94;10440131;28;20057;-83
2022/01/04 23:39:45;;;;;;;2.33;1.20;;;;;;;6.52;67.02;98087.66;10441050;28;20914;-82
2022/01/04 23:44:48;;;;;;;1.52;1.00;;;;;;;6.48;66.98;98078.44;10437744;28;20048;-83
2022/01/04 23:49:49;;;;;;;3.58;1.20;;;;;;;6.51;66.69;98079.03;10440194;28;20095;-83
2022/01/04 23:54:51;;;;;;;3.22;1.30;;;;;;;6.51;66.90;98078.22;10441173;28;20060;-83
2022/01/04 23:59:53;;;;;;;2.47;1.20;;;;;;;6.46;66.60;98069.91;10440297;28;20053;-81
